sensor_id;sensor_type;location;lat;lon;timestamp;pressure;altitude;pressure_sealevel;temperature;humidity
8894;BME280;4483;48.622;9.230;2023-04-27T00:02:17;97960.44;;;8.91;79.81
8894;BME280;4483;48.622;9.230;2023-04-27T00:04:44;97961.25;;;8.92;80.17
8894;BME280;4483;48.622;9.230;2023-04-27T00:07:11;97961.31;;;8.90;80.05
8894;BME280;4483;48.622;9.230;2023-04-27T00:09:38;97959.69;;;8.88;79.68
8894;BME280;4483;48.622;9.230;2023-04-27T00:12:05;97952.16;;;8.82;79.72
8894;BME280;4483;48.622;9.230;2023-04-27T00:14:32;97964.16;;;8.81;80.08
8894;BME280;4483;48.622;9.230;2023-04-27T00:16:58;97953.22;;;8.76;79.97
8894;BME280;4483;48.622;9.230;2023-04-27T00:19:25;97957.59;;;8.73;80.77
8894;BME280;4483;48.622;9.230;2023-04-27T00:21:53;97962.78;;;8.71;80.32
8894;BME280;4483;48.622;9.230;2023-04-27T00:24:22;97966.34;;;8.67;80.90
8894;BME280;4483;48.622;9.230;2023-04-27T00:26:48;97957.84;;;8.65;80.68
8894;BME280;4483;48.622;9.230;2023-04-27T00:29:15;97957.16;;;8.60;81.22
8894;BME280;4483;48.622;9.230;2023-04-27T00:31:42;97960.59;;;8.59;81.19
8894;BME280;4483;48.622;9.230;2023-04-27T00:34:08;97950.38;;;8.58;81.37
8894;BME280;4483;48.622;9.230;2023-04-27T00:36:35;97954.66;;;8.57;81.68
8894;BME280;4483;48.622;9.230;2023-04-27T00:39:03;97953.84;;;8.57;82.12
8894;BME280;4483;48.622;9.230;2023-04-27T00:41:30;97951.25;;;8.57;82.22
8894;BME280;4483;48.622;9.230;2023-04-27T00:43:57;97947.09;;;8.53;82.29
8894;BME280;4483;48.622;9.230;2023-04-27T00:46:24;97947.97;;;8.52;82.45
8894;BME280;4483;48.622;9.230;2023-04-27T00:48:52;97944.59;;;8.50;82.41
8894;BME280;4483;48.622;9.230;2023-04-27T00:51:19;97931.81;;;8.48;82.67
8894;BME280;4483;48.622;9.230;2023-04-27T00:53:46;97942.09;;;8.48;82.85
8894;BME280;4483;48.622;9.230;2023-04-27T00:56:14;97935.34;;;8.46;82.97
8894;BME280;4483;48.622;9.230;2023-04-27T00:58:40;97929.47;;;8.42;83.13
8894;BME280;4483;48.622;9.230;2023-04-27T01:01:08;97926.91;;;8.42;83.21
8894;BME280;4483;48.622;9.230;2023-04-27T01:03:35;97932.09;;;8.39;83.06
8894;BME280;4483;48.622;9.230;2023-04-27T01:06:02;97936.44;;;8.37;83.46
8894;BME280;4483;48.622;9.230;2023-04-27T01:08:29;97927.94;;;8.35;83.51
8894;BME280;4483;48.622;9.230;2023-04-27T01:10:55;97922.00;;;8.35;83.70
8894;BME280;4483;48.622;9.230;2023-04-27T01:13:23;97934.03;;;8.33;84.07
8894;BME280;4483;48.622;9.230;2023-04-27T01:15:50;97941.03;;;8.28;84.17
8894;BME280;4483;48.622;9.230;2023-04-27T01:18:17;97943.69;;;8.23;84.20
8894;BME280;4483;48.622;9.230;2023-04-27T01:20:43;97942.94;;;8.20;84.76
8894;BME280;4483;48.622;9.230;2023-04-27T01:23:13;97943.97;;;8.14;84.69
8894;BME280;4483;48.622;9.230;2023-04-27T01:25:40;97949.19;;;8.11;84.89
8894;BME280;4483;48.622;9.230;2023-04-27T01:28:07;97954.34;;;8.09;84.73
8894;BME280;4483;48.622;9.230;2023-04-27T01:30:33;97947.59;;;8.07;85.19
8894;BME280;4483;48.622;9.230;2023-04-27T01:33:00;97946.75;;;8.06;84.96
8894;BME280;4483;48.622;9.230;2023-04-27T01:35:27;97943.50;;;8.01;85.02
8894;BME280;4483;48.622;9.230;2023-04-27T01:37:53;97946.91;;;8.00;85.57
8894;BME280;4483;48.622;9.230;2023-04-27T01:40:21;97941.78;;;8.02;86.06
8894;BME280;4483;48.622;9.230;2023-04-27T01:42:48;97940.88;;;8.03;85.88
8894;BME280;4483;48.622;9.230;2023-04-27T01:45:14;97945.09;;;8.04;85.75
8894;BME280;4483;48.622;9.230;2023-04-27T01:47:41;97940.78;;;8.06;85.94
8894;BME280;4483;48.622;9.230;2023-04-27T01:50:08;97939.09;;;8.05;86.13
8894;BME280;4483;48.622;9.230;2023-04-27T01:52:35;97936.50;;;8.06;85.64
8894;BME280;4483;48.622;9.230;2023-04-27T01:55:02;97934.81;;;8.05;86.04
8894;BME280;4483;48.622;9.230;2023-04-27T01:57:30;97941.66;;;8.05;86.15
8894;BME280;4483;48.622;9.230;2023-04-27T01:59:57;97947.72;;;8.02;85.81
8894;BME280;4483;48.622;9.230;2023-04-27T02:02:24;97948.66;;;8.00;85.90
8894;BME280;4483;48.622;9.230;2023-04-27T02:04:50;97948.69;;;7.98;86.34
8894;BME280;4483;48.622;9.230;2023-04-27T02:07:17;97960.75;;;7.96;86.62
8894;BME280;4483;48.622;9.230;2023-04-27T02:09:43;97957.38;;;7.94;86.61
8894;BME280;4483;48.622;9.230;2023-04-27T02:12:10;97958.28;;;7.92;86.67
8894;BME280;4483;48.622;9.230;2023-04-27T02:14:38;97953.22;;;7.90;86.88
8894;BME280;4483;48.622;9.230;2023-04-27T02:17:05;97953.25;;;7.89;87.10
8894;BME280;4483;48.622;9.230;2023-04-27T02:19:31;97955.84;;;7.87;87.25
8894;BME280;4483;48.622;9.230;2023-04-27T02:21:58;97959.31;;;7.86;87.20
8894;BME280;4483;48.622;9.230;2023-04-27T02:24:24;97958.50;;;7.84;87.40
8894;BME280;4483;48.622;9.230;2023-04-27T02:26:51;97968.78;;;7.84;87.50
8894;BME280;4483;48.622;9.230;2023-04-27T02:29:18;97961.06;;;7.84;87.50
8894;BME280;4483;48.622;9.230;2023-04-27T02:31:46;97963.69;;;7.83;87.40
8894;BME280;4483;48.622;9.230;2023-04-27T02:34:12;97956.91;;;7.80;87.45
8894;BME280;4483;48.622;9.230;2023-04-27T02:36:39;97968.97;;;7.77;87.49
8894;BME280;4483;48.622;9.230;2023-04-27T02:39:06;97965.69;;;7.72;87.77
8894;BME280;4483;48.622;9.230;2023-04-27T02:41:32;97960.63;;;7.70;87.94
8894;BME280;4483;48.622;9.230;2023-04-27T02:43:59;97964.91;;;7.70;88.11
8894;BME280;4483;48.622;9.230;2023-04-27T02:46:25;97970.03;;;7.70;87.95
8894;BME280;4483;48.622;9.230;2023-04-27T02:48:54;97968.31;;;7.70;88.06
8894;BME280;4483;48.622;9.230;2023-04-27T02:51:20;97976.06;;;7.69;88.19
8894;BME280;4483;48.622;9.230;2023-04-27T02:53:47;97976.13;;;7.66;88.42
8894;BME280;4483;48.622;9.230;2023-04-27T02:56:14;97969.44;;;7.60;88.30
8894;BME280;4483;48.622;9.230;2023-04-27T02:58:41;97974.50;;;7.62;88.62
8894;BME280;4483;48.622;9.230;2023-04-27T03:01:09;97973.75;;;7.60;88.88
8894;BME280;4483;48.622;9.230;2023-04-27T03:03:35;97979.72;;;7.59;88.79
8894;BME280;4483;48.622;9.230;2023-04-27T03:06:04;97981.50;;;7.57;88.83
8894;BME280;4483;48.622;9.230;2023-04-27T03:08:31;97987.47;;;7.57;89.06
8894;BME280;4483;48.622;9.230;2023-04-27T03:10:58;97982.34;;;7.57;89.01
8894;BME280;4483;48.622;9.230;2023-04-27T03:13:24;97974.66;;;7.57;89.15
8894;BME280;4483;48.622;9.230;2023-04-27T03:15:52;97976.41;;;7.55;89.21
8894;BME280;4483;48.622;9.230;2023-04-27T03:18:18;97976.47;;;7.54;89.63
8894;BME280;4483;48.622;9.230;2023-04-27T03:20:45;97981.59;;;7.54;89.45
8894;BME280;4483;48.622;9.230;2023-04-27T03:23:13;97985.09;;;7.50;89.25
8894;BME280;4483;48.622;9.230;2023-04-27T03:25:40;97983.50;;;7.46;89.33
8894;BME280;4483;48.622;9.230;2023-04-27T03:28:06;97987.00;;;7.42;89.85
8894;BME280;4483;48.622;9.230;2023-04-27T03:30:33;97987.94;;;7.39;89.68
8894;BME280;4483;48.622;9.230;2023-04-27T03:33:00;97991.47;;;7.35;89.62
8894;BME280;4483;48.622;9.230;2023-04-27T03:35:26;97987.25;;;7.33;90.40
8894;BME280;4483;48.622;9.230;2023-04-27T03:37:53;97987.25;;;7.33;90.45
8894;BME280;4483;48.622;9.230;2023-04-27T03:40:21;97992.38;;;7.33;90.51
8894;BME280;4483;48.622;9.230;2023-04-27T03:42:47;97986.38;;;7.34;90.93
8894;BME280;4483;48.622;9.230;2023-04-27T03:45:14;97981.16;;;7.37;91.17
8894;BME280;4483;48.622;9.230;2023-04-27T03:47:42;97982.03;;;7.37;91.02
8894;BME280;4483;48.622;9.230;2023-04-27T03:50:09;97976.88;;;7.37;91.46
8894;BME280;4483;48.622;9.230;2023-04-27T03:52:36;97982.88;;;7.36;91.46
8894;BME280;4483;48.622;9.230;2023-04-27T03:55:03;97987.16;;;7.37;91.34
8894;BME280;4483;48.622;9.230;2023-04-27T03:57:31;97993.13;;;7.36;91.79
8894;BME280;4483;48.622;9.230;2023-04-27T03:59:57;97984.66;;;7.34;91.98
8894;BME280;4483;48.622;9.230;2023-04-27T04:02:24;98001.66;;;7.37;91.78
8894;BME280;4483;48.622;9.230;2023-04-27T04:04:50;97990.56;;;7.36;92.16
8894;BME280;4483;48.622;9.230;2023-04-27T04:07:17;97992.34;;;7.34;91.87
8894;BME280;4483;48.622;9.230;2023-04-27T04:09:44;98000.91;;;7.33;92.05
8894;BME280;4483;48.622;9.230;2023-04-27T04:12:11;97999.19;;;7.34;92.26
8894;BME280;4483;48.622;9.230;2023-04-27T04:14:39;97997.50;;;7.33;92.08
8894;BME280;4483;48.622;9.230;2023-04-27T04:17:08;98000.09;;;7.31;92.22
8894;BME280;4483;48.622;9.230;2023-04-27T04:19:35;97994.16;;;7.31;92.46
8894;BME280;4483;48.622;9.230;2023-04-27T04:22:01;98000.97;;;7.32;92.59
8894;BME280;4483;48.622;9.230;2023-04-27T04:24:28;98006.09;;;7.32;92.89
8894;BME280;4483;48.622;9.230;2023-04-27T04:26:54;97998.31;;;7.35;92.89
8894;BME280;4483;48.622;9.230;2023-04-27T04:29:23;98000.03;;;7.34;92.90
8894;BME280;4483;48.622;9.230;2023-04-27T04:31:51;98004.25;;;7.37;92.87
8894;BME280;4483;48.622;9.230;2023-04-27T04:34:17;98008.44;;;7.39;93.28
8894;BME280;4483;48.622;9.230;2023-04-27T04:36:44;98002.38;;;7.43;93.20
8894;BME280;4483;48.622;9.230;2023-04-27T04:39:11;98002.38;;;7.43;92.85
8894;BME280;4483;48.622;9.230;2023-04-27T04:41:37;98008.31;;;7.45;93.22
8894;BME280;4483;48.622;9.230;2023-04-27T04:44:04;98014.31;;;7.44;92.69
8894;BME280;4483;48.622;9.230;2023-04-27T04:46:31;98005.91;;;7.39;93.04
8894;BME280;4483;48.622;9.230;2023-04-27T04:48:59;98010.81;;;7.47;93.41
8894;BME280;4483;48.622;9.230;2023-04-27T04:51:26;98005.66;;;7.48;93.57
8894;BME280;4483;48.622;9.230;2023-04-27T04:53:53;98010.63;;;7.54;93.73
8894;BME280;4483;48.622;9.230;2023-04-27T04:56:19;98015.63;;;7.59;93.46
8894;BME280;4483;48.622;9.230;2023-04-27T04:58:46;98012.97;;;7.62;93.49
8894;BME280;4483;48.622;9.230;2023-04-27T05:01:13;98018.03;;;7.65;93.29
8894;BME280;4483;48.622;9.230;2023-04-27T05:03:39;98013.75;;;7.65;93.35
8894;BME280;4483;48.622;9.230;2023-04-27T05:06:07;98013.81;;;7.62;92.92
8894;BME280;4483;48.622;9.230;2023-04-27T05:08:34;98013.03;;;7.60;93.09
8894;BME280;4483;48.622;9.230;2023-04-27T05:11:01;98015.53;;;7.62;93.22
8894;BME280;4483;48.622;9.230;2023-04-27T05:13:28;98007.75;;;7.66;93.83
8894;BME280;4483;48.622;9.230;2023-04-27T05:15:54;98010.06;;;7.75;93.94
8894;BME280;4483;48.622;9.230;2023-04-27T05:18:21;98006.41;;;7.84;93.74
8894;BME280;4483;48.622;9.230;2023-04-27T05:20:48;98007.09;;;7.90;93.55
8894;BME280;4483;48.622;9.230;2023-04-27T05:23:16;98008.66;;;7.96;93.58
8894;BME280;4483;48.622;9.230;2023-04-27T05:25:42;98009.34;;;8.01;93.28
8894;BME280;4483;48.622;9.230;2023-04-27T05:28:09;98012.56;;;8.09;92.84
8894;BME280;4483;48.622;9.230;2023-04-27T05:30:36;98011.44;;;8.18;93.25
8894;BME280;4483;48.622;9.230;2023-04-27T05:33:03;98015.47;;;8.28;92.79
8894;BME280;4483;48.622;9.230;2023-04-27T05:35:30;98011.75;;;8.38;92.81
8894;BME280;4483;48.622;9.230;2023-04-27T05:37:57;98019.13;;;8.48;92.60
8894;BME280;4483;48.622;9.230;2023-04-27T05:40:25;98014.47;;;8.61;92.28
8894;BME280;4483;48.622;9.230;2023-04-27T05:42:52;98019.38;;;8.68;91.42
8894;BME280;4483;48.622;9.230;2023-04-27T05:45:19;98021.03;;;8.71;91.33
8894;BME280;4483;48.622;9.230;2023-04-27T05:47:46;98016.56;;;8.76;90.89
8894;BME280;4483;48.622;9.230;2023-04-27T05:50:13;98017.25;;;8.81;90.65
8894;BME280;4483;48.622;9.230;2023-04-27T05:52:39;98016.16;;;8.89;91.05
8894;BME280;4483;48.622;9.230;2023-04-27T05:55:07;98026.84;;;9.03;90.93
8894;BME280;4483;48.622;9.230;2023-04-27T05:57:34;98027.22;;;9.18;90.66
8894;BME280;4483;48.622;9.230;2023-04-27T06:00:02;98026.63;;;9.37;90.35
8894;BME280;4483;48.622;9.230;2023-04-27T06:02:32;98027.00;;;9.51;89.28
8894;BME280;4483;48.622;9.230;2023-04-27T06:04:59;98033.41;;;9.64;88.89
8894;BME280;4483;48.622;9.230;2023-04-27T06:07:26;98032.84;;;9.81;89.31
8894;BME280;4483;48.622;9.230;2023-04-27T06:09:52;98033.97;;;9.97;88.07
8894;BME280;4483;48.622;9.230;2023-04-27T06:12:19;98030.22;;;10.05;87.58
8894;BME280;4483;48.622;9.230;2023-04-27T06:14:47;98035.13;;;10.13;87.05
8894;BME280;4483;48.622;9.230;2023-04-27T06:17:13;98034.94;;;10.19;86.77
8894;BME280;4483;48.622;9.230;2023-04-27T06:19:40;98035.50;;;10.27;86.81
8894;BME280;4483;48.622;9.230;2023-04-27T06:22:08;98041.91;;;10.39;85.80
8894;BME280;4483;48.622;9.230;2023-04-27T06:24:35;98035.66;;;10.46;85.62
8894;BME280;4483;48.622;9.230;2023-04-27T06:27:02;98039.56;;;10.56;84.98
8894;BME280;4483;48.622;9.230;2023-04-27T06:29:29;98046.09;;;10.64;85.04
8894;BME280;4483;48.622;9.230;2023-04-27T06:31:57;98050.28;;;10.90;86.70
8894;BME280;4483;48.622;9.230;2023-04-27T06:34:23;98043.69;;;11.04;85.26
8894;BME280;4483;48.622;9.230;2023-04-27T06:36:50;98053.63;;;11.13;84.27
8894;BME280;4483;48.622;9.230;2023-04-27T06:39:17;98042.00;;;11.25;83.25
8894;BME280;4483;48.622;9.230;2023-04-27T06:41:43;98042.53;;;11.33;83.27
8894;BME280;4483;48.622;9.230;2023-04-27T06:44:10;98052.56;;;11.41;82.63
8894;BME280;4483;48.622;9.230;2023-04-27T06:46:36;98047.13;;;11.47;82.35
8894;BME280;4483;48.622;9.230;2023-04-27T06:49:04;98054.63;;;11.53;81.45
8894;BME280;4483;48.622;9.230;2023-04-27T06:51:31;98054.31;;;11.60;81.06
8894;BME280;4483;48.622;9.230;2023-04-27T06:53:58;98055.88;;;11.64;79.66
8894;BME280;4483;48.622;9.230;2023-04-27T06:56:24;98056.41;;;11.72;80.05
8894;BME280;4483;48.622;9.230;2023-04-27T06:58:51;98048.97;;;11.85;79.67
8894;BME280;4483;48.622;9.230;2023-04-27T07:01:17;98047.56;;;11.98;78.26
8894;BME280;4483;48.622;9.230;2023-04-27T07:03:44;98046.75;;;12.16;79.21
8894;BME280;4483;48.622;9.230;2023-04-27T07:06:12;98042.84;;;12.46;78.49
8894;BME280;4483;48.622;9.230;2023-04-27T07:08:39;98047.09;;;12.66;77.79
8894;BME280;4483;48.622;9.230;2023-04-27T07:11:06;98048.66;;;12.88;76.10
8894;BME280;4483;48.622;9.230;2023-04-27T07:13:32;98042.97;;;12.99;74.16
8894;BME280;4483;48.622;9.230;2023-04-27T07:15:59;98040.38;;;13.18;74.35
8894;BME280;4483;48.622;9.230;2023-04-27T07:18:26;98043.34;;;13.46;74.48
8894;BME280;4483;48.622;9.230;2023-04-27T07:20:53;98045.91;;;13.63;73.36
8894;BME280;4483;48.622;9.230;2023-04-27T07:23:23;98043.78;;;13.71;70.83
8894;BME280;4483;48.622;9.230;2023-04-27T07:25:50;98043.31;;;13.97;71.38
8894;BME280;4483;48.622;9.230;2023-04-27T07:28:17;98036.19;;;14.18;68.74
8894;BME280;4483;48.622;9.230;2023-04-27T07:30:43;98036.84;;;14.38;68.28
8894;BME280;4483;48.622;9.230;2023-04-27T07:33:10;98037.59;;;14.88;68.72
8894;BME280;4483;48.622;9.230;2023-04-27T07:35:37;98040.75;;;15.25;66.60
8894;BME280;4483;48.622;9.230;2023-04-27T07:38:04;98028.25;;;15.76;65.08
8894;BME280;4483;48.622;9.230;2023-04-27T07:40:33;98028.03;;;16.37;64.34
8894;BME280;4483;48.622;9.230;2023-04-27T07:43:00;98019.63;;;16.88;62.14
8894;BME280;4483;48.622;9.230;2023-04-27T07:45:27;98026.41;;;17.32;59.46
8894;BME280;4483;48.622;9.230;2023-04-27T07:47:56;98021.66;;;17.77;59.30
8894;BME280;4483;48.622;9.230;2023-04-27T07:50:24;98018.44;;;17.99;54.12
8894;BME280;4483;48.622;9.230;2023-04-27T07:52:51;98020.13;;;18.13;52.88
8894;BME280;4483;48.622;9.230;2023-04-27T07:55:18;98020.63;;;18.30;52.46
8894;BME280;4483;48.622;9.230;2023-04-27T07:57:47;98024.50;;;18.62;52.85
8894;BME280;4483;48.622;9.230;2023-04-27T08:00:14;98018.38;;;18.87;52.43
8894;BME280;4483;48.622;9.230;2023-04-27T08:02:41;98020.88;;;19.12;51.86
8894;BME280;4483;48.622;9.230;2023-04-27T08:05:08;98015.72;;;18.99;48.77
8894;BME280;4483;48.622;9.230;2023-04-27T08:07:34;98015.88;;;18.85;47.97
8894;BME280;4483;48.622;9.230;2023-04-27T08:10:01;98022.75;;;18.86;48.24
8894;BME280;4483;48.622;9.230;2023-04-27T08:12:28;98016.66;;;18.98;46.15
8894;BME280;4483;48.622;9.230;2023-04-27T08:14:56;98024.69;;;19.08;47.19
8894;BME280;4483;48.622;9.230;2023-04-27T08:17:22;98021.06;;;19.22;45.68
8894;BME280;4483;48.622;9.230;2023-04-27T08:19:49;98010.78;;;19.55;45.96
8894;BME280;4483;48.622;9.230;2023-04-27T08:22:16;98009.88;;;19.67;44.95
8894;BME280;4483;48.622;9.230;2023-04-27T08:24:42;97999.84;;;19.84;45.17
8894;BME280;4483;48.622;9.230;2023-04-27T08:27:10;97994.50;;;19.86;43.94
8894;BME280;4483;48.622;9.230;2023-04-27T08:29:36;97991.84;;;19.75;44.14
8894;BME280;4483;48.622;9.230;2023-04-27T08:32:04;97995.97;;;19.32;44.19
8894;BME280;4483;48.622;9.230;2023-04-27T08:34:31;97988.78;;;19.23;45.24
8894;BME280;4483;48.622;9.230;2023-04-27T08:36:58;97988.22;;;19.54;44.34
8894;BME280;4483;48.622;9.230;2023-04-27T08:39:24;97983.09;;;20.09;44.35
8894;BME280;4483;48.622;9.230;2023-04-27T08:41:51;97985.19;;;20.39;43.02
8894;BME280;4483;48.622;9.230;2023-04-27T08:44:17;97978.41;;;20.58;42.72
8894;BME280;4483;48.622;9.230;2023-04-27T08:46:44;97980.91;;;20.60;41.96
8894;BME280;4483;48.622;9.230;2023-04-27T08:49:12;97981.94;;;20.79;41.21
8894;BME280;4483;48.622;9.230;2023-04-27T08:51:39;97971.91;;;20.95;40.58
8894;BME280;4483;48.622;9.230;2023-04-27T08:54:06;97979.25;;;21.24;40.20
8894;BME280;4483;48.622;9.230;2023-04-27T08:56:33;97979.16;;;21.46;39.12
8894;BME280;4483;48.622;9.230;2023-04-27T08:59:00;97979.22;;;21.76;39.43
8894;BME280;4483;48.622;9.230;2023-04-27T09:01:28;97975.78;;;21.75;39.03
8894;BME280;4483;48.622;9.230;2023-04-27T09:03:57;97977.81;;;21.72;38.50
8894;BME280;4483;48.622;9.230;2023-04-27T09:06:33;97974.50;;;21.70;37.42
8894;BME280;4483;48.622;9.230;2023-04-27T09:09:00;97975.44;;;21.69;37.61
8894;BME280;4483;48.622;9.230;2023-04-27T09:11:28;97970.25;;;21.58;37.44
8894;BME280;4483;48.622;9.230;2023-04-27T09:13:57;97966.94;;;21.56;37.24
8894;BME280;4483;48.622;9.230;2023-04-27T09:16:24;97973.16;;;21.75;37.47
8894;BME280;4483;48.622;9.230;2023-04-27T09:18:52;97972.44;;;21.84;35.97
8894;BME280;4483;48.622;9.230;2023-04-27T09:21:23;97975.16;;;21.83;37.17
8894;BME280;4483;48.622;9.230;2023-04-27T09:23:51;97971.09;;;21.99;37.12
8894;BME280;4483;48.622;9.230;2023-04-27T09:26:19;97975.78;;;22.17;36.32
8894;BME280;4483;48.622;9.230;2023-04-27T09:28:48;97968.47;;;22.20;36.15
8894;BME280;4483;48.622;9.230;2023-04-27T09:31:15;97970.63;;;22.36;35.57
8894;BME280;4483;48.622;9.230;2023-04-27T09:33:43;97979.00;;;22.30;35.00
8894;BME280;4483;48.622;9.230;2023-04-27T09:36:12;97968.28;;;22.42;34.89
8894;BME280;4483;48.622;9.230;2023-04-27T09:38:39;97969.50;;;22.38;34.75
8894;BME280;4483;48.622;9.230;2023-04-27T09:41:07;97967.78;;;22.48;33.82
8894;BME280;4483;48.622;9.230;2023-04-27T09:43:34;97967.72;;;22.39;34.09
8894;BME280;4483;48.622;9.230;2023-04-27T09:46:03;97968.28;;;22.42;34.00
8894;BME280;4483;48.622;9.230;2023-04-27T09:48:29;97969.66;;;22.67;34.54
8894;BME280;4483;48.622;9.230;2023-04-27T09:50:56;97970.47;;;22.58;33.94
8894;BME280;4483;48.622;9.230;2023-04-27T09:53:26;97966.22;;;22.46;34.56
8894;BME280;4483;48.622;9.230;2023-04-27T09:56:05;97969.97;;;22.43;33.78
8894;BME280;4483;48.622;9.230;2023-04-27T09:58:57;97953.50;;;22.41;33.59
8894;BME280;4483;48.622;9.230;2023-04-27T10:01:34;97955.34;;;22.50;33.77
8894;BME280;4483;48.622;9.230;2023-04-27T10:04:15;97965.78;;;22.61;33.86
8894;BME280;4483;48.622;9.230;2023-04-27T10:07:00;97961.78;;;22.67;33.53
8894;BME280;4483;48.622;9.230;2023-04-27T10:09:33;97963.66;;;23.14;33.96
8894;BME280;4483;48.622;9.230;2023-04-27T10:12:13;97955.56;;;23.46;33.85
8894;BME280;4483;48.622;9.230;2023-04-27T10:14:51;97953.31;;;23.51;32.46
8894;BME280;4483;48.622;9.230;2023-04-27T10:17:23;97957.03;;;23.39;32.97
8894;BME280;4483;48.622;9.230;2023-04-27T10:19:55;97956.47;;;23.07;33.32
8894;BME280;4483;48.622;9.230;2023-04-27T10:22:22;97950.47;;;22.46;33.61
8894;BME280;4483;48.622;9.230;2023-04-27T10:24:50;97952.00;;;21.88;34.22
8894;BME280;4483;48.622;9.230;2023-04-27T10:27:18;97956.22;;;21.59;34.98
8894;BME280;4483;48.622;9.230;2023-04-27T10:29:48;97950.22;;;22.19;35.08
8894;BME280;4483;48.622;9.230;2023-04-27T10:32:19;97953.09;;;22.76;33.91
8894;BME280;4483;48.622;9.230;2023-04-27T10:34:48;97942.53;;;23.35;34.08
8894;BME280;4483;48.622;9.230;2023-04-27T10:37:17;97930.69;;;23.86;33.59
8894;BME280;4483;48.622;9.230;2023-04-27T10:39:46;97928.47;;;24.01;33.40
8894;BME280;4483;48.622;9.230;2023-04-27T10:42:13;97934.03;;;23.79;33.28
8894;BME280;4483;48.622;9.230;2023-04-27T10:44:39;97933.16;;;23.88;33.07
8894;BME280;4483;48.622;9.230;2023-04-27T10:47:14;97937.25;;;23.73;32.32
8894;BME280;4483;48.622;9.230;2023-04-27T10:49:42;97926.94;;;24.08;33.23
8894;BME280;4483;48.622;9.230;2023-04-27T10:52:08;97929.97;;;24.13;33.21
8894;BME280;4483;48.622;9.230;2023-04-27T10:54:35;97926.75;;;23.44;32.68
8894;BME280;4483;48.622;9.230;2023-04-27T10:57:05;97930.00;;;22.79;33.37
8894;BME280;4483;48.622;9.230;2023-04-27T10:59:32;97933.63;;;22.48;34.21
8894;BME280;4483;48.622;9.230;2023-04-27T11:02:00;97929.19;;;22.09;35.01
8894;BME280;4483;48.622;9.230;2023-04-27T11:04:38;97929.69;;;21.93;35.54
8894;BME280;4483;48.622;9.230;2023-04-27T11:07:05;97924.66;;;21.81;36.03
8894;BME280;4483;48.622;9.230;2023-04-27T11:09:33;97930.72;;;21.70;36.64
8894;BME280;4483;48.622;9.230;2023-04-27T11:12:01;97931.84;;;21.68;36.95
8894;BME280;4483;48.622;9.230;2023-04-27T11:14:28;97938.78;;;21.58;37.18
8894;BME280;4483;48.622;9.230;2023-04-27T11:16:55;97940.06;;;21.43;37.23
8894;BME280;4483;48.622;9.230;2023-04-27T11:19:21;97929.84;;;21.40;37.24
8894;BME280;4483;48.622;9.230;2023-04-27T11:21:49;97929.25;;;21.36;37.02
8894;BME280;4483;48.622;9.230;2023-04-27T11:24:16;97933.94;;;21.33;37.45
8894;BME280;4483;48.622;9.230;2023-04-27T11:26:50;97939.94;;;21.24;37.46
8894;BME280;4483;48.622;9.230;2023-04-27T11:29:17;97936.25;;;21.15;37.54
8894;BME280;4483;48.622;9.230;2023-04-27T11:31:45;97931.63;;;21.19;37.08
8894;BME280;4483;48.622;9.230;2023-04-27T11:34:17;97935.72;;;21.00;37.39
8894;BME280;4483;48.622;9.230;2023-04-27T11:36:56;97927.22;;;20.65;37.09
8894;BME280;4483;48.622;9.230;2023-04-27T11:39:25;97920.81;;;20.58;37.62
8894;BME280;4483;48.622;9.230;2023-04-27T11:41:52;97925.53;;;20.64;37.85
8894;BME280;4483;48.622;9.230;2023-04-27T11:44:24;97924.81;;;20.73;37.79
8894;BME280;4483;48.622;9.230;2023-04-27T11:46:52;97932.16;;;20.90;38.04
8894;BME280;4483;48.622;9.230;2023-04-27T11:49:18;97932.47;;;21.08;38.44
8894;BME280;4483;48.622;9.230;2023-04-27T11:51:45;97931.63;;;21.39;38.11
8894;BME280;4483;48.622;9.230;2023-04-27T11:54:14;97927.13;;;22.13;36.80
8894;BME280;4483;48.622;9.230;2023-04-27T11:56:42;97929.44;;;22.36;36.47
8894;BME280;4483;48.622;9.230;2023-04-27T11:59:19;97921.59;;;22.06;35.58
8894;BME280;4483;48.622;9.230;2023-04-27T12:01:46;97928.66;;;21.64;35.96
8894;BME280;4483;48.622;9.230;2023-04-27T12:04:13;97929.63;;;21.32;35.94
8894;BME280;4483;48.622;9.230;2023-04-27T12:06:40;97929.50;;;21.13;36.68
8894;BME280;4483;48.622;9.230;2023-04-27T12:09:07;97921.63;;;21.13;36.57
8894;BME280;4483;48.622;9.230;2023-04-27T12:11:35;97913.72;;;21.65;36.23
8894;BME280;4483;48.622;9.230;2023-04-27T12:14:02;97918.78;;;22.28;35.52
8894;BME280;4483;48.622;9.230;2023-04-27T12:16:28;97901.38;;;22.76;34.41
8894;BME280;4483;48.622;9.230;2023-04-27T12:18:55;97895.75;;;23.29;34.00
8894;BME280;4483;48.622;9.230;2023-04-27T12:21:22;97891.00;;;23.61;33.10
8894;BME280;4483;48.622;9.230;2023-04-27T12:23:48;97889.94;;;23.25;32.95
8894;BME280;4483;48.622;9.230;2023-04-27T12:26:15;97896.41;;;23.02;33.19
8894;BME280;4483;48.622;9.230;2023-04-27T12:28:44;97892.56;;;22.47;34.08
8894;BME280;4483;48.622;9.230;2023-04-27T12:31:13;97893.56;;;22.07;34.48
8894;BME280;4483;48.622;9.230;2023-04-27T12:33:40;97893.06;;;21.71;35.38
8894;BME280;4483;48.622;9.230;2023-04-27T12:36:07;97895.84;;;21.49;35.67
8894;BME280;4483;48.622;9.230;2023-04-27T12:38:34;97900.22;;;21.28;36.00
8894;BME280;4483;48.622;9.230;2023-04-27T12:41:01;97901.66;;;21.00;36.23
8894;BME280;4483;48.622;9.230;2023-04-27T12:43:28;97897.41;;;20.88;36.58
8894;BME280;4483;48.622;9.230;2023-04-27T12:45:56;97896.50;;;20.78;37.07
8894;BME280;4483;48.622;9.230;2023-04-27T12:48:22;97897.44;;;20.77;37.15
8894;BME280;4483;48.622;9.230;2023-04-27T12:50:49;97903.69;;;20.86;37.63
8894;BME280;4483;48.622;9.230;2023-04-27T12:53:15;97900.22;;;20.96;37.88
8894;BME280;4483;48.622;9.230;2023-04-27T12:55:42;97890.56;;;20.97;37.71
8894;BME280;4483;48.622;9.230;2023-04-27T12:58:09;97895.72;;;20.98;37.57
8894;BME280;4483;48.622;9.230;2023-04-27T13:00:35;97889.75;;;21.08;37.92
8894;BME280;4483;48.622;9.230;2023-04-27T13:03:04;97890.50;;;21.19;37.95
8894;BME280;4483;48.622;9.230;2023-04-27T13:05:32;97885.13;;;21.21;37.28
8894;BME280;4483;48.622;9.230;2023-04-27T13:07:58;97884.56;;;21.17;37.41
8894;BME280;4483;48.622;9.230;2023-04-27T13:10:25;97880.00;;;20.98;37.26
8894;BME280;4483;48.622;9.230;2023-04-27T13:12:53;97874.78;;;20.87;37.26
8894;BME280;4483;48.622;9.230;2023-04-27T13:15:20;97883.75;;;20.74;37.28
8894;BME280;4483;48.622;9.230;2023-04-27T13:17:46;97878.53;;;20.74;37.65
8894;BME280;4483;48.622;9.230;2023-04-27T13:20:15;97869.81;;;20.73;37.80
8894;BME280;4483;48.622;9.230;2023-04-27T13:22:41;97871.25;;;20.77;38.22
8894;BME280;4483;48.622;9.230;2023-04-27T13:25:08;97870.03;;;20.81;38.32
8894;BME280;4483;48.622;9.230;2023-04-27T13:27:35;97872.03;;;20.89;38.28
8894;BME280;4483;48.622;9.230;2023-04-27T13:30:02;97873.34;;;20.94;38.39